createdAt,value
2022-10-24T00:00:00.797Z,97676.69
2022-10-24T00:02:30.867Z,97676.69
2022-10-24T00:05:01.756Z,97676.69
2022-10-24T00:07:31.139Z,97682.91
2022-10-24T00:10:00.687Z,97672.28
2022-10-24T00:12:30.203Z,97663.78
2022-10-24T00:14:59.805Z,97678.66
2022-10-24T00:17:29.143Z,97672.94
2022-10-24T00:19:59.008Z,97672.06
2022-10-24T00:22:29.805Z,97671.56
2022-10-24T00:24:59.528Z,97663.84
2022-10-24T00:27:28.958Z,97654.69
2022-10-24T00:29:58.688Z,97642.22
2022-10-24T00:32:27.910Z,97644.94
2022-10-24T00:34:57.319Z,97640.63
2022-10-24T00:37:28.314Z,97637.88
2022-10-24T00:39:57.606Z,97635.53
2022-10-24T00:42:26.769Z,97633.47
2022-10-24T00:44:56.597Z,97634.03
2022-10-24T00:47:27.294Z,97626.91
2022-10-24T00:50:00.975Z,97638.69
2022-10-24T00:52:34.873Z,97644.13
2022-10-24T00:55:05.755Z,97642.53
2022-10-24T00:57:38.763Z,97631.00
2022-10-24T01:00:10.429Z,97636.38
2022-10-24T01:02:40.438Z,97649.44
2022-10-24T01:05:10.813Z,97636.31
2022-10-24T01:07:49.334Z,97629.88
2022-10-24T01:10:29.441Z,97630.72
2022-10-24T01:13:04.675Z,97635.78
2022-10-24T01:15:40.379Z,97623.78
2022-10-24T01:18:14.108Z,97632.69
2022-10-24T01:20:55.986Z,97629.06
2022-10-24T01:24:07.692Z,97629.63
2022-10-24T01:29:54.953Z,97635.28
2022-10-24T01:32:32.966Z,97632.72
2022-10-24T01:35:07.313Z,97629.88
2022-10-24T01:37:40.881Z,97627.63
2022-10-24T01:40:15.212Z,97622.97
2022-10-24T01:42:46.586Z,97620.25
2022-10-24T01:45:23.620Z,97612.88
2022-10-24T01:47:55.127Z,97619.13
2022-10-24T01:50:25.928Z,97613.38
2022-10-24T01:52:57.074Z,97616.41
2022-10-24T01:55:26.557Z,97614.53
2022-10-24T01:57:55.846Z,97600.91
2022-10-24T02:00:27.416Z,97614.53
2022-10-24T02:03:02.126Z,97602.91
2022-10-24T02:05:33.961Z,97599.69
2022-10-24T02:08:06.322Z,97593.91
2022-10-24T02:10:39.325Z,97596.00
2022-10-24T02:13:12.778Z,97596.59
2022-10-24T02:15:46.679Z,97587.28
2022-10-24T02:18:15.968Z,97593.66
2022-10-24T02:20:50.602Z,97598.22
2022-10-24T02:23:22.913Z,97611.00
2022-10-24T02:25:54.822Z,97598.75
2022-10-24T02:28:25.725Z,97590.91
2022-10-24T02:31:00.895Z,97588.28
2022-10-24T02:33:31.426Z,97593.91
2022-10-24T02:36:01.376Z,97596.16
2022-10-24T02:38:33.744Z,97583.22
2022-10-24T02:41:05.444Z,97584.00
2022-10-24T02:43:35.282Z,97589.03
2022-10-24T02:46:07.723Z,97579.22
2022-10-24T02:48:42.447Z,97577.25
2022-10-24T02:51:11.822Z,97593.41
2022-10-24T02:53:41.977Z,97602.25
2022-10-24T02:56:11.314Z,97616.97
2022-10-24T02:58:40.938Z,97625.78
2022-10-24T03:01:11.758Z,97634.47
2022-10-24T03:03:41.139Z,97634.25
2022-10-24T03:06:10.550Z,97634.63
2022-10-24T03:08:40.313Z,97641.59
2022-10-24T03:11:10.080Z,97643.94
2022-10-24T03:13:39.618Z,97642.19
2022-10-24T03:16:13.291Z,97638.50
2022-10-24T03:18:43.745Z,97651.97
2022-10-24T03:21:13.012Z,97653.16
2022-10-24T03:23:42.239Z,97645.00
2022-10-24T03:26:12.014Z,97644.16
2022-10-24T03:28:41.398Z,97623.31
2022-10-24T03:31:14.336Z,97646.88
2022-10-24T03:33:43.338Z,97658.59
2022-10-24T03:36:12.611Z,97651.75
2022-10-24T03:38:41.878Z,97664.66
2022-10-24T03:41:11.758Z,97651.75
2022-10-24T03:43:41.298Z,97658.69
2022-10-24T03:46:12.073Z,97646.78
2022-10-24T03:48:41.629Z,97647.00
2022-10-24T03:51:11.010Z,97658.00
2022-10-24T03:53:40.334Z,97660.03
2022-10-24T03:56:11.103Z,97659.31
2022-10-24T03:58:40.349Z,97655.97
2022-10-24T04:01:17.209Z,97651.84
2022-10-24T04:03:47.055Z,97656.47
2022-10-24T04:06:16.382Z,97662.25
2022-10-24T04:08:45.568Z,97665.53
2022-10-24T04:11:14.953Z,97665.81
2022-10-24T04:13:44.504Z,97668.53
2022-10-24T04:16:15.382Z,97667.09
2022-10-24T04:18:44.626Z,97666.91
2022-10-24T04:21:19.349Z,97670.25
2022-10-24T04:23:51.242Z,97679.50
2022-10-24T04:26:20.905Z,97681.84
2022-10-24T04:28:50.242Z,97682.16
2022-10-24T04:31:23.481Z,97670.44
2022-10-24T04:33:53.380Z,97658.72
2022-10-24T04:36:22.694Z,97662.66
2022-10-24T04:38:51.653Z,97667.69
2022-10-24T04:41:20.578Z,97673.22
2022-10-24T04:43:49.861Z,97676.38
2022-10-24T04:46:20.639Z,97656.47
2022-10-24T04:48:49.946Z,97662.47
2022-10-24T04:51:22.303Z,97672.94
2022-10-24T04:53:52.339Z,97666.28
2022-10-24T04:56:22.833Z,97673.47
2022-10-24T04:58:52.014Z,97671.34
2022-10-24T05:01:22.838Z,97678.31
2022-10-24T05:03:52.143Z,97678.31
2022-10-24T05:06:21.630Z,97673.19
2022-10-24T05:08:50.968Z,97674.53
2022-10-24T05:11:22.784Z,97673.53
2022-10-24T05:13:51.636Z,97672.06
2022-10-24T05:16:22.381Z,97676.91
2022-10-24T05:18:52.115Z,97683.28
2022-10-24T05:21:21.312Z,97692.09
2022-10-24T05:23:50.608Z,97704.72
2022-10-24T05:26:19.800Z,97707.84
2022-10-24T05:28:52.388Z,97704.78
2022-10-24T05:31:23.906Z,97701.25
2022-10-24T05:33:53.289Z,97706.44
2022-10-24T05:36:22.712Z,97711.63
2022-10-24T05:38:51.930Z,97710.56
2022-10-24T05:41:21.263Z,97722.41
2022-10-24T05:43:50.811Z,97715.91
2022-10-24T05:46:20.529Z,97727.38
2022-10-24T05:48:51.376Z,97737.09
2022-10-24T05:51:20.555Z,97739.41
2022-10-24T05:53:51.186Z,97745.81
2022-10-24T05:56:20.665Z,97750.19
2022-10-24T05:58:50.125Z,97764.28
2022-10-24T06:01:19.478Z,97772.16
2022-10-24T06:03:50.629Z,97768.47
2022-10-24T06:06:20.087Z,97774.47
2022-10-24T06:08:49.301Z,97771.66
2022-10-24T06:11:18.891Z,97782.56
2022-10-24T06:13:48.142Z,97785.63
2022-10-24T06:16:17.832Z,97786.84
2022-10-24T06:18:47.230Z,97788.72
2022-10-24T06:21:19.605Z,97797.81
2022-10-24T06:23:48.800Z,97793.84
2022-10-24T06:26:20.399Z,97784.78
2022-10-24T06:28:52.522Z,97794.25
2022-10-24T06:31:21.983Z,97791.81
2022-10-24T06:33:51.379Z,97801.66
2022-10-24T06:36:22.284Z,97804.84
2022-10-24T06:38:51.547Z,97795.88
2022-10-24T06:41:20.700Z,97815.53
2022-10-24T06:43:49.801Z,97815.72
2022-10-24T06:46:23.288Z,97804.81
2022-10-24T06:48:56.192Z,97817.25
2022-10-24T06:51:27.427Z,97808.59
2022-10-24T06:53:56.734Z,97839.13
2022-10-24T06:56:26.063Z,97831.38
2022-10-24T06:58:55.666Z,97838.03
2022-10-24T07:01:26.477Z,97833.56
2022-10-24T07:03:56.345Z,97827.72
2022-10-24T07:06:29.320Z,97835.88
2022-10-24T07:09:01.124Z,97832.72
2022-10-24T07:11:31.102Z,97820.38
2022-10-24T07:14:01.870Z,97826.78
2022-10-24T07:16:32.786Z,97827.72
2022-10-24T07:19:02.258Z,97846.38
2022-10-24T07:21:35.152Z,97847.84
2022-10-24T07:24:05.674Z,97856.72
2022-10-24T07:26:35.291Z,97862.63
2022-10-24T07:29:05.305Z,97862.19
2022-10-24T07:31:36.401Z,97853.38
2022-10-24T07:34:07.332Z,97849.59
2022-10-24T07:36:41.551Z,97859.19
2022-10-24T07:39:15.024Z,97847.03
2022-10-24T07:41:44.545Z,97860.25
2022-10-24T07:44:13.807Z,97852.94
2022-10-24T07:46:43.641Z,97849.13
2022-10-24T07:49:13.255Z,97853.84
2022-10-24T07:51:44.583Z,97860.25
2022-10-24T07:54:14.178Z,97852.06
2022-10-24T07:56:45.077Z,97846.03
2022-10-24T07:59:37.304Z,97841.88
2022-10-24T08:02:03.781Z,97840.00
2022-10-24T08:04:32.993Z,97820.91
2022-10-24T08:07:04.079Z,97831.03
2022-10-24T08:09:33.397Z,97839.88
2022-10-24T08:12:03.265Z,97831.66
2022-10-24T08:14:32.619Z,97828.44
2022-10-24T08:17:02.378Z,97831.66
2022-10-24T08:19:31.758Z,97821.44
2022-10-24T08:22:01.796Z,97821.75
2022-10-24T08:24:32.868Z,97816.31
2022-10-24T08:27:02.023Z,97810.72
2022-10-24T08:29:31.572Z,97812.88
2022-10-24T08:32:01.194Z,97810.97
2022-10-24T08:34:30.516Z,97816.44
2022-10-24T08:37:00.082Z,97811.88
2022-10-24T08:39:29.768Z,97801.66
2022-10-24T08:42:03.535Z,97795.16
2022-10-24T08:44:36.028Z,97791.25
2022-10-24T08:47:08.312Z,97791.75
2022-10-24T08:49:43.271Z,97787.19
2022-10-24T08:52:19.750Z,97791.75
2022-10-24T08:54:49.895Z,97791.75
2022-10-24T08:57:24.296Z,97789.72
2022-10-24T08:59:55.541Z,97789.22
2022-10-24T09:02:26.426Z,97790.31
2022-10-24T09:04:58.952Z,97791.69
2022-10-24T09:07:28.763Z,97801.13
2022-10-24T09:10:06.976Z,97791.00
2022-10-24T09:12:40.201Z,97791.00
2022-10-24T09:15:17.575Z,97787.69
2022-10-24T09:17:47.446Z,97795.75
2022-10-24T09:20:25.735Z,97801.16
2022-10-24T09:22:56.082Z,97778.13
2022-10-24T09:25:29.751Z,97776.75
2022-10-24T09:28:03.971Z,97785.22
2022-10-24T09:30:36.532Z,97778.13
2022-10-24T09:33:13.244Z,97772.81
2022-10-24T09:35:43.064Z,97774.56
2022-10-24T09:38:33.637Z,97777.88
2022-10-24T09:41:06.134Z,97779.03
2022-10-24T09:43:41.076Z,97763.63
2022-10-24T09:46:12.711Z,97765.84
2022-10-24T09:48:50.311Z,97763.25
2022-10-24T09:51:28.515Z,97759.47
2022-10-24T09:54:26.259Z,97773.75
2022-10-24T09:56:58.055Z,97777.56
2022-10-24T09:59:42.260Z,97777.88
2022-10-24T10:02:24.749Z,97772.19
2022-10-24T10:05:28.958Z,97764.72
2022-10-24T10:08:01.166Z,97768.44
2022-10-24T10:10:35.537Z,97769.53
2022-10-24T10:13:12.239Z,97753.91
2022-10-24T10:15:47.489Z,97747.22
2022-10-24T10:18:28.936Z,97752.81
2022-10-24T10:21:08.575Z,97749.41
2022-10-24T10:23:40.734Z,97747.03
2022-10-24T10:26:22.999Z,97739.69
2022-10-24T10:29:22.220Z,97727.75
2022-10-24T10:32:01.740Z,97727.53
2022-10-24T10:34:35.855Z,97720.56
2022-10-24T10:37:25.407Z,97721.19
2022-10-24T10:40:25.029Z,97718.38
2022-10-24T10:43:17.741Z,97711.91
2022-10-24T10:45:49.162Z,97709.72
2022-10-24T10:48:34.035Z,97706.22
2022-10-24T10:51:08.525Z,97690.16
2022-10-24T10:53:40.950Z,97697.34
2022-10-24T10:56:20.286Z,97703.47
2022-10-24T10:58:55.574Z,97704.91
2022-10-24T11:01:29.316Z,97698.28
2022-10-24T11:04:06.253Z,97702.19
2022-10-24T11:06:43.278Z,97689.56
2022-10-24T11:09:30.241Z,97692.38
2022-10-24T11:12:05.606Z,97687.00
2022-10-24T11:14:37.290Z,97686.69
2022-10-24T11:17:13.028Z,97687.81
2022-10-24T11:20:00.999Z,97694.03
2022-10-24T11:22:34.691Z,97688.66
2022-10-24T11:25:09.644Z,97689.94
2022-10-24T11:27:43.502Z,97679.00
2022-10-24T11:30:16.431Z,97664.56
2022-10-24T11:32:51.611Z,97664.81
2022-10-24T11:35:29.690Z,97665.03
2022-10-24T11:38:02.587Z,97657.22
2022-10-24T11:40:32.306Z,97660.53
2022-10-24T11:43:11.028Z,97661.75
2022-10-24T11:45:46.251Z,97666.44
2022-10-24T11:48:21.107Z,97666.56
2022-10-24T11:50:55.861Z,97664.88
2022-10-24T11:53:46.218Z,97664.63
2022-10-24T11:56:23.499Z,97668.97
2022-10-24T11:58:59.233Z,97664.81
2022-10-24T12:01:54.253Z,97657.25
2022-10-24T12:04:40.623Z,97643.88
2022-10-24T12:07:48.773Z,97634.38
2022-10-24T12:10:46.329Z,97621.63
2022-10-24T12:13:35.542Z,97617.03
2022-10-24T12:16:12.560Z,97608.66
2022-10-24T12:18:44.624Z,97604.56
2022-10-24T12:21:21.037Z,97605.50
2022-10-24T12:23:55.991Z,97601.63
2022-10-24T12:26:30.453Z,97610.81
2022-10-24T12:29:01.063Z,97607.56
2022-10-24T12:31:32.989Z,97602.66
2022-10-24T12:34:48.731Z,97597.38
2022-10-24T12:37:36.440Z,97599.47
2022-10-24T12:40:52.314Z,97588.78
2022-10-24T12:43:34.987Z,97580.06
2022-10-24T12:46:23.149Z,97578.41
2022-10-24T12:49:23.137Z,97566.88
2022-10-24T12:51:54.937Z,97568.69
2022-10-24T12:54:40.703Z,97566.56
2022-10-24T12:57:27.186Z,97564.72
2022-10-24T12:59:59.292Z,97567.13
2022-10-24T13:02:43.838Z,97567.91
2022-10-24T13:05:23.364Z,97557.06
2022-10-24T13:08:02.772Z,97560.25
2022-10-24T13:10:45.708Z,97541.72
2022-10-24T13:13:33.006Z,97532.63
2022-10-24T13:16:09.568Z,97535.19
2022-10-24T13:18:48.583Z,97530.00
2022-10-24T13:21:24.242Z,97526.28
2022-10-24T13:23:53.664Z,97539.50
2022-10-24T13:26:45.589Z,97540.38
2022-10-24T13:29:17.490Z,97541.47
2022-10-24T13:31:50.669Z,97530.97
2022-10-24T13:34:32.178Z,97532.16
2022-10-24T13:37:17.580Z,97531.75
2022-10-24T13:39:49.875Z,97526.88
2022-10-24T13:42:28.643Z,97520.63
2022-10-24T13:45:02.230Z,97518.81
2022-10-24T13:47:35.967Z,97513.09
2022-10-24T13:50:08.661Z,97516.28
2022-10-24T13:52:49.054Z,97520.38
2022-10-24T13:55:24.160Z,97522.69
2022-10-24T13:57:56.497Z,97514.28
2022-10-24T14:00:28.640Z,97518.31
2022-10-24T14:03:02.420Z,97521.34
2022-10-24T14:05:36.363Z,97501.72
2022-10-24T14:08:06.658Z,97514.69
2022-10-24T14:10:35.981Z,97516.53
2022-10-24T14:13:05.350Z,97515.66
2022-10-24T14:15:35.361Z,97512.94
2022-10-24T14:18:14.294Z,97508.13
2022-10-24T14:20:44.285Z,97499.94
2022-10-24T14:23:28.197Z,97504.91
2022-10-24T14:26:00.210Z,97504.00
2022-10-24T14:28:30.868Z,97507.97
2022-10-24T14:31:01.452Z,97516.81
2022-10-24T14:33:34.340Z,97518.31
2022-10-24T14:36:05.063Z,97513.81
2022-10-24T14:38:34.707Z,97501.72
2022-10-24T14:41:09.432Z,97493.34
2022-10-24T14:43:42.641Z,97497.25
2022-10-24T14:46:30.947Z,97503.19
2022-10-24T14:49:21.759Z,97503.03
2022-10-24T14:54:30.847Z,97488.44
2022-10-24T14:57:00.918Z,97471.06
2022-10-24T14:59:33.242Z,97459.78
2022-10-24T15:02:06.527Z,97457.53
2022-10-24T15:04:45.921Z,97462.22
2022-10-24T15:07:20.975Z,97474.09
2022-10-24T15:09:56.353Z,97470.44
2022-10-24T15:12:29.782Z,97472.53
2022-10-24T15:15:21.517Z,97468.28
2022-10-24T15:17:52.325Z,97468.59
2022-10-24T15:20:27.506Z,97471.03
2022-10-24T15:22:58.530Z,97478.59
2022-10-24T15:25:30.803Z,97476.75
2022-10-24T15:28:00.473Z,97475.22
2022-10-24T15:30:31.707Z,97468.34
2022-10-24T15:33:02.401Z,97466.66
2022-10-24T15:35:40.953Z,97464.03
2022-10-24T15:38:15.501Z,97470.09
2022-10-24T15:40:47.486Z,97471.44
2022-10-24T15:43:18.969Z,97463.03
2022-10-24T15:45:48.755Z,97465.59
2022-10-24T15:48:18.129Z,97462.56
2022-10-24T15:50:48.966Z,97469.03
2022-10-24T15:53:20.946Z,97466.44
2022-10-24T15:55:50.509Z,97457.72
2022-10-24T15:58:20.160Z,97467.00
2022-10-24T16:00:50.884Z,97466.94
2022-10-24T16:03:22.986Z,97472.34
2022-10-24T16:05:55.353Z,97473.81
2022-10-24T16:08:25.417Z,97458.41
2022-10-24T16:10:58.373Z,97452.63
2022-10-24T16:13:27.991Z,97467.69
2022-10-24T16:15:57.382Z,97469.22
2022-10-24T16:18:27.080Z,97466.44
2022-10-24T16:20:59.838Z,97465.88
2022-10-24T16:23:30.181Z,97470.50
2022-10-24T16:25:59.544Z,97480.50
2022-10-24T16:28:30.212Z,97480.13
2022-10-24T16:30:59.428Z,97476.50
2022-10-24T16:33:28.731Z,97487.47
2022-10-24T16:35:59.403Z,97488.47
2022-10-24T16:38:28.797Z,97484.28
2022-10-24T16:40:58.374Z,97481.16
2022-10-24T16:43:27.733Z,97482.66
2022-10-24T16:46:01.400Z,97482.03
2022-10-24T16:48:31.321Z,97485.06
2022-10-24T16:51:02.190Z,97484.88
2022-10-24T16:53:31.598Z,97485.53
2022-10-24T16:56:01.064Z,97491.53
2022-10-24T16:58:31.119Z,97488.91
2022-10-24T17:01:04.819Z,97498.09
2022-10-24T17:03:34.886Z,97485.31
2022-10-24T17:06:06.455Z,97488.69
2022-10-24T17:08:35.983Z,97484.13
2022-10-24T17:11:20.261Z,97480.28
2022-10-24T17:13:56.051Z,97489.47
2022-10-24T17:16:25.582Z,97499.41
2022-10-24T17:19:12.406Z,97512.84
2022-10-24T17:21:50.748Z,97514.78
2022-10-24T17:24:22.454Z,97510.34
2022-10-24T17:26:52.265Z,97532.28
2022-10-24T17:29:26.037Z,97535.13
2022-10-24T17:31:56.163Z,97544.72
2022-10-24T17:34:26.066Z,97549.75
2022-10-24T17:37:01.819Z,97552.72
2022-10-24T17:39:34.068Z,97565.03
2022-10-24T17:42:04.040Z,97566.59
2022-10-24T17:44:34.107Z,97564.72
2022-10-24T17:47:04.804Z,97565.03
2022-10-24T17:49:34.446Z,97558.59
2022-10-24T17:52:05.446Z,97567.78
2022-10-24T17:54:36.591Z,97567.31
2022-10-24T17:57:07.666Z,97578.69
2022-10-24T17:59:37.048Z,97572.47
2022-10-24T18:02:06.635Z,97565.13
2022-10-24T18:04:38.564Z,97567.06
2022-10-24T18:07:09.288Z,97602.03
2022-10-24T18:09:40.211Z,97599.56
2022-10-24T18:12:10.603Z,97575.66
2022-10-24T18:14:39.991Z,97574.72
2022-10-24T18:17:09.565Z,97605.00
2022-10-24T18:19:38.857Z,97637.81
2022-10-24T18:22:09.610Z,97659.25
2022-10-24T18:24:41.579Z,97684.19
2022-10-24T18:27:11.523Z,97691.94
2022-10-24T18:32:15.377Z,97684.94
2022-10-24T18:34:45.725Z,97700.91
2022-10-24T18:37:17.899Z,97710.41
2022-10-24T18:39:48.051Z,97712.59
2022-10-24T18:42:26.357Z,97710.41
2022-10-24T18:44:56.364Z,97708.63
2022-10-24T18:47:27.303Z,97703.28
2022-10-24T18:49:57.458Z,97701.19
2022-10-24T18:52:40.796Z,97697.44
2022-10-24T18:55:18.270Z,97684.19
2022-10-24T18:57:48.704Z,97683.13
2022-10-24T19:00:20.457Z,97678.22
2022-10-24T19:02:55.449Z,97681.38
2022-10-24T19:05:26.905Z,97683.34
2022-10-24T19:07:59.082Z,97686.84
2022-10-24T19:10:29.755Z,97692.50
2022-10-24T19:12:59.427Z,97692.31
2022-10-24T19:15:29.670Z,97688.81
2022-10-24T19:17:59.460Z,97692.06
2022-10-24T19:20:32.372Z,97695.22
2022-10-24T19:23:06.125Z,97698.59
2022-10-24T19:25:35.803Z,97698.97
2022-10-24T19:28:05.337Z,97704.13
2022-10-24T19:30:34.944Z,97696.38
2022-10-24T19:33:04.354Z,97693.13
2022-10-24T19:35:33.653Z,97683.38
2022-10-24T19:38:04.512Z,97703.28
2022-10-24T19:40:33.878Z,97709.78
2022-10-24T19:43:03.507Z,97711.41
2022-10-24T19:45:32.804Z,97710.75
2022-10-24T19:48:02.131Z,97712.94
2022-10-24T19:50:31.453Z,97715.94
2022-10-24T19:53:01.421Z,97709.38
2022-10-24T19:55:32.377Z,97703.75
2022-10-24T19:58:01.966Z,97704.06
2022-10-24T20:00:31.820Z,97704.97
2022-10-24T20:03:03.638Z,97702.69
2022-10-24T20:05:33.357Z,97703.56
2022-10-24T20:08:02.903Z,97705.00
2022-10-24T20:10:33.705Z,97707.50
2022-10-24T20:13:05.539Z,97720.13
2022-10-24T20:15:35.063Z,97708.81
2022-10-24T20:18:04.426Z,97712.81
2022-10-24T20:20:33.708Z,97726.63
2022-10-24T20:23:03.347Z,97731.34
2022-10-24T20:25:35.410Z,97721.72
2022-10-24T20:28:05.096Z,97713.53
2022-10-24T20:31:01.110Z,97709.72
2022-10-24T20:33:30.711Z,97715.72
2022-10-24T20:36:00.863Z,97722.41
2022-10-24T20:38:30.597Z,97726.16
2022-10-24T20:41:04.852Z,97721.88
2022-10-24T20:43:34.418Z,97730.31
2022-10-24T20:46:06.508Z,97739.59
2022-10-24T20:48:36.340Z,97738.75
2022-10-24T20:51:07.583Z,97750.59
2022-10-24T20:53:37.642Z,97758.69
2022-10-24T20:56:10.913Z,97753.72
2022-10-24T20:58:41.616Z,97742.31
2022-10-24T21:01:14.282Z,97746.56
2022-10-24T21:03:44.699Z,97757.34
2022-10-24T21:06:18.249Z,97737.41
2022-10-24T21:08:48.794Z,97731.84
2022-10-24T21:11:24.981Z,97737.53
2022-10-24T21:13:54.939Z,97742.56
2022-10-24T21:16:24.783Z,97742.00
2022-10-24T21:18:54.735Z,97747.63
2022-10-24T21:21:25.084Z,97757.56
2022-10-24T21:23:55.437Z,97753.06
2022-10-24T21:26:26.397Z,97748.72
2022-10-24T21:28:59.589Z,97747.94
2022-10-24T21:31:44.244Z,97758.88
2022-10-24T21:34:13.779Z,97771.56
2022-10-24T21:36:43.029Z,97765.34
2022-10-24T21:39:14.042Z,97761.50
2022-10-24T21:41:45.114Z,97761.19
2022-10-24T21:44:14.583Z,97757.59
2022-10-24T21:46:44.334Z,97771.91
2022-10-24T21:49:13.592Z,97758.53
2022-10-24T21:51:43.941Z,97753.94
2022-10-24T21:54:18.032Z,97762.81
2022-10-24T21:56:48.983Z,97765.88
2022-10-24T21:59:20.352Z,97762.28
2022-10-24T22:01:51.169Z,97764.84
2022-10-24T22:04:21.034Z,97746.75
2022-10-24T22:06:50.533Z,97747.13
2022-10-24T22:09:23.596Z,97742.31
2022-10-24T22:11:57.735Z,97747.97
2022-10-24T22:14:27.117Z,97758.03
2022-10-24T22:16:56.653Z,97765.78
2022-10-24T22:19:26.438Z,97772.50
2022-10-24T22:21:55.753Z,97765.94
2022-10-24T22:24:26.107Z,97755.41
2022-10-24T22:26:56.752Z,97758.88
2022-10-24T22:29:27.232Z,97751.72
2022-10-24T22:31:57.215Z,97747.72
2022-10-24T22:34:27.430Z,97756.56
2022-10-24T22:37:12.945Z,97764.81
2022-10-24T22:39:42.719Z,97760.91
2022-10-24T22:42:17.552Z,97762.28
2022-10-24T22:44:51.326Z,97758.88
2022-10-24T22:47:45.425Z,97763.97
2022-10-24T22:50:21.961Z,97767.34
2022-10-24T22:52:52.299Z,97768.41
2022-10-24T22:55:29.382Z,97773.84
2022-10-24T22:58:01.658Z,97775.72
2022-10-24T23:00:31.810Z,97782.03
2022-10-24T23:03:09.001Z,97789.03
2022-10-24T23:05:41.929Z,97789.41
2022-10-24T23:08:18.110Z,97803.53
2022-10-24T23:10:47.930Z,97804.69
2022-10-24T23:13:18.938Z,97802.50
2022-10-24T23:15:48.558Z,97808.59
2022-10-24T23:18:18.883Z,97804.00
2022-10-24T23:20:54.614Z,97813.66
2022-10-24T23:23:29.101Z,97816.75
2022-10-24T23:26:03.661Z,97807.22
2022-10-24T23:28:40.270Z,97804.97
2022-10-24T23:31:10.112Z,97808.91
2022-10-24T23:33:40.161Z,97797.19
2022-10-24T23:36:18.662Z,97791.34
2022-10-24T23:38:48.747Z,97789.38
2022-10-24T23:41:18.549Z,97787.63
2022-10-24T23:43:50.365Z,97793.03
2022-10-24T23:46:26.961Z,97788.44
2022-10-24T23:49:04.753Z,97784.69
2022-10-24T23:51:38.979Z,97782.50
2022-10-24T23:54:12.016Z,97783.19
2022-10-24T23:56:42.122Z,97784.13
2022-10-24T23:59:13.035Z,97788.56
